East Pitcairn, New York
Current Conditions -  °F | °C
As of 6:58 PM on Friday 21 Nov 2014 (Local Time) from KGTB Reporting Station
Broken Clouds Broken Clouds  
Wind Chill: -11°   Ceiling: 4800
Heat Index: -6°   Visibility: 10mi
Dew Point: -14°   Wind: 6mph
Humidity: 58%   Direction: 300°WNW
Pressure: 30.36"   Gusts: NA
Location:  44.1447°N, 75.2952°W
Report Text: KGTB 212358Z AUTO 30005KT 10SM FEW035 BKN048 M06/M13 A3036 RMK AO2 SLP294 T10641135 11045 21073 51009
Loading
Personal Weather Stations






























Interactive Weather Map New forecast layout! Learn more

10-Day Weather Forecast

Advertisements
Track Severe Weather on mobile